createdAt,value
2023-02-09T00:01:26.094Z,-0.18
2023-02-09T00:03:54.515Z,-0.17
2023-02-09T00:06:24.092Z,-0.18
2023-02-09T00:08:53.748Z,-0.18
2023-02-09T00:11:43.845Z,-0.20
2023-02-09T00:14:10.755Z,-0.21
2023-02-09T00:16:38.619Z,-0.22
2023-02-09T00:19:06.475Z,-0.25
2023-02-09T00:21:34.402Z,-0.28
2023-02-09T00:24:03.486Z,-0.31
2023-02-09T00:26:31.312Z,-0.34
2023-02-09T00:28:59.074Z,-0.36
2023-02-09T00:31:27.233Z,-0.38
2023-02-09T00:33:55.054Z,-0.40
2023-02-09T00:36:22.861Z,-0.42
2023-02-09T00:38:50.588Z,-0.42
2023-02-09T00:41:40.703Z,-0.43
2023-02-09T00:44:08.529Z,-0.44
2023-02-09T00:46:36.351Z,-0.46
2023-02-09T00:49:04.515Z,-0.47
2023-02-09T00:51:32.283Z,-0.49
2023-02-09T00:54:00.060Z,-0.50
2023-02-09T00:56:29.156Z,-0.50
2023-02-09T00:58:56.905Z,-0.54
2023-02-09T01:01:24.647Z,-0.53
2023-02-09T01:03:52.412Z,-0.55
2023-02-09T01:06:20.158Z,-0.57
2023-02-09T01:08:47.902Z,-0.56
2023-02-09T01:11:17.539Z,-0.56
2023-02-09T01:13:47.293Z,-0.58
2023-02-09T01:16:17.536Z,-0.60
2023-02-09T01:18:45.687Z,-0.60
2023-02-09T01:21:15.266Z,-0.61
2023-02-09T01:23:43.350Z,-0.63
2023-02-09T01:26:12.473Z,-0.66
2023-02-09T01:28:40.328Z,-0.65
2023-02-09T01:31:21.493Z,-0.66
2023-02-09T01:33:49.501Z,-0.67
2023-02-09T01:36:17.428Z,-0.69
2023-02-09T01:38:45.184Z,-0.71
2023-02-09T01:41:13.061Z,-0.71
2023-02-09T01:44:06.679Z,-0.73
2023-02-09T01:46:37.694Z,-0.72
2023-02-09T01:49:09.529Z,-0.71
2023-02-09T01:51:39.714Z,-0.72
2023-02-09T01:54:10.366Z,-0.72
2023-02-09T01:56:42.731Z,-0.73
2023-02-09T01:59:11.434Z,-0.73
2023-02-09T02:01:42.132Z,-0.73
2023-02-09T02:04:10.031Z,-0.72
2023-02-09T02:06:38.563Z,-0.74
2023-02-09T02:09:12.328Z,-0.73
2023-02-09T02:11:41.470Z,-0.74
2023-02-09T02:14:28.890Z,-0.74
2023-02-09T02:17:08.070Z,-0.74
2023-02-09T02:20:11.091Z,-0.75
2023-02-09T02:23:13.977Z,-0.77
2023-02-09T02:26:32.119Z,-0.77
2023-02-09T02:29:23.125Z,-0.77
2023-02-09T02:32:10.096Z,-0.76
2023-02-09T02:34:45.674Z,-0.76
2023-02-09T02:37:23.297Z,-0.76
2023-02-09T02:39:55.977Z,-0.77
2023-02-09T02:42:52.891Z,-0.79
2023-02-09T02:45:30.145Z,-0.81
2023-02-09T02:48:06.467Z,-0.83
2023-02-09T02:50:37.612Z,-0.84
2023-02-09T02:53:08.001Z,-0.83
2023-02-09T02:55:38.894Z,-0.84
2023-02-09T02:58:12.177Z,-0.83
2023-02-09T03:00:43.878Z,-0.84
2023-02-09T03:03:15.761Z,-0.83
2023-02-09T03:05:45.490Z,-0.84
2023-02-09T03:08:13.268Z,-0.84
2023-02-09T03:10:42.873Z,-0.86
2023-02-09T03:13:39.112Z,-0.87
2023-02-09T03:16:21.523Z,-0.88
2023-02-09T03:19:04.246Z,-0.88
2023-02-09T03:21:43.118Z,-0.87
2023-02-09T03:24:20.721Z,-0.87
2023-02-09T03:26:53.133Z,-0.87
2023-02-09T03:29:23.585Z,-0.88
2023-02-09T03:31:52.117Z,-0.92
2023-02-09T03:34:21.558Z,-0.91
2023-02-09T03:36:53.330Z,-0.94
2023-02-09T03:39:21.090Z,-0.95
2023-02-09T03:41:48.876Z,-0.95
2023-02-09T03:44:28.558Z,-0.97
2023-02-09T03:46:58.453Z,-0.95
2023-02-09T03:49:30.295Z,-0.95
2023-02-09T03:52:00.650Z,-0.92
2023-02-09T03:54:28.793Z,-0.91
2023-02-09T03:56:56.867Z,-0.90
2023-02-09T03:59:26.387Z,-0.90
2023-02-09T04:01:54.832Z,-0.88
2023-02-09T04:04:22.918Z,-0.87
2023-02-09T04:06:52.467Z,-0.87
2023-02-09T04:09:20.503Z,-0.86
2023-02-09T04:11:48.277Z,-0.86
2023-02-09T04:14:16.516Z,-0.86
2023-02-09T04:16:44.507Z,-0.86
2023-02-09T04:19:12.389Z,-0.88
2023-02-09T04:21:40.463Z,-0.87
2023-02-09T04:24:10.277Z,-0.87
2023-02-09T04:26:38.113Z,-0.86
2023-02-09T04:29:05.951Z,-0.85
2023-02-09T04:31:34.891Z,-0.84
2023-02-09T04:34:03.147Z,-0.84
2023-02-09T04:36:31.234Z,-0.86
2023-02-09T04:38:59.042Z,-0.87
2023-02-09T04:41:28.243Z,-0.85
2023-02-09T04:43:55.967Z,-0.86
2023-02-09T04:46:23.730Z,-0.84
2023-02-09T04:48:51.563Z,-0.84
2023-02-09T04:51:19.409Z,-0.85
2023-02-09T04:53:47.120Z,-0.85
2023-02-09T04:56:16.436Z,-0.85
2023-02-09T04:59:03.778Z,-0.86
2023-02-09T05:01:32.911Z,-0.85
2023-02-09T05:04:00.762Z,-0.84
2023-02-09T05:06:28.515Z,-0.84
2023-02-09T05:08:56.239Z,-0.85
2023-02-09T05:11:25.589Z,-0.88
2023-02-09T05:13:54.837Z,-0.88
2023-02-09T05:16:22.745Z,-0.90
2023-02-09T05:18:51.099Z,-0.92
2023-02-09T05:21:18.847Z,-0.93
2023-02-09T05:23:46.618Z,-0.94
2023-02-09T05:26:14.353Z,-0.95
2023-02-09T05:28:42.121Z,-0.98
2023-02-09T05:31:11.290Z,-0.96
2023-02-09T05:33:39.188Z,-0.95
2023-02-09T05:36:09.528Z,-0.95
2023-02-09T05:38:37.618Z,-0.95
2023-02-09T05:41:06.393Z,-0.94
2023-02-09T05:43:34.419Z,-0.96
2023-02-09T05:46:02.260Z,-0.99
2023-02-09T05:48:31.399Z,-0.99
2023-02-09T05:50:59.156Z,-0.99
2023-02-09T05:53:26.906Z,-1.01
2023-02-09T05:55:54.628Z,-1.02
2023-02-09T05:58:22.400Z,-1.03
2023-02-09T06:00:50.164Z,-1.04
2023-02-09T06:03:18.057Z,-1.04
2023-02-09T06:05:47.385Z,-1.07
2023-02-09T06:08:15.113Z,-1.07
2023-02-09T06:10:42.827Z,-1.08
2023-02-09T06:13:10.556Z,-1.11
2023-02-09T06:15:38.410Z,-1.13
2023-02-09T06:18:06.343Z,-1.15
2023-02-09T06:20:34.144Z,-1.11
2023-02-09T06:23:03.296Z,-1.11
2023-02-09T06:25:31.064Z,-1.14
2023-02-09T06:27:58.861Z,-1.11
2023-02-09T06:30:26.716Z,-1.10
2023-02-09T06:32:54.512Z,-1.10
2023-02-09T06:35:22.357Z,-1.10
2023-02-09T06:37:50.364Z,-1.10
2023-02-09T06:40:21.824Z,-1.08
2023-02-09T06:42:49.551Z,-1.08
2023-02-09T06:45:18.723Z,-1.08
2023-02-09T06:47:47.403Z,-1.07
2023-02-09T06:50:17.004Z,-1.08
2023-02-09T06:52:45.110Z,-1.10
2023-02-09T06:55:13.349Z,-1.11
2023-02-09T06:57:42.538Z,-1.13
2023-02-09T07:00:12.713Z,-1.15
2023-02-09T07:02:42.565Z,-1.15
2023-02-09T07:05:10.931Z,-1.18
2023-02-09T07:07:39.648Z,-1.19
2023-02-09T07:10:09.499Z,-1.18
2023-02-09T07:12:38.031Z,-1.20
2023-02-09T07:15:09.475Z,-1.19
2023-02-09T07:17:37.244Z,-1.19
2023-02-09T07:20:06.003Z,-1.18
2023-02-09T07:22:34.515Z,-1.19
2023-02-09T07:25:02.326Z,-1.20
2023-02-09T07:27:30.055Z,-1.18
2023-02-09T07:29:59.920Z,-1.19
2023-02-09T07:32:29.916Z,-1.18
2023-02-09T07:34:57.663Z,-1.18
2023-02-09T07:37:25.442Z,-1.18
2023-02-09T07:39:53.184Z,-1.18
2023-02-09T07:42:23.101Z,-1.16
2023-02-09T07:44:51.145Z,-1.15
2023-02-09T07:47:18.890Z,-1.13
2023-02-09T07:49:47.971Z,-1.09
2023-02-09T07:52:15.890Z,-1.06
2023-02-09T07:54:43.797Z,-1.08
2023-02-09T07:57:13.572Z,-1.04
2023-02-09T07:59:41.423Z,-1.02
2023-02-09T08:02:17.868Z,-0.98
2023-02-09T08:04:46.179Z,-0.92
2023-02-09T08:07:15.394Z,-0.89
2023-02-09T08:09:45.087Z,-0.88
2023-02-09T08:12:13.056Z,-0.86
2023-02-09T08:14:48.093Z,-0.83
2023-02-09T08:17:25.905Z,-0.80
2023-02-09T08:19:56.415Z,-0.77
2023-02-09T08:22:29.150Z,-0.73
2023-02-09T08:24:57.877Z,-0.70
2023-02-09T08:27:25.843Z,-0.66
2023-02-09T08:29:53.658Z,-0.61
2023-02-09T08:32:21.372Z,-0.56
2023-02-09T08:34:49.192Z,-0.54
2023-02-09T08:37:16.931Z,-0.49
2023-02-09T08:39:46.725Z,-0.44
2023-02-09T08:42:14.529Z,-0.38
2023-02-09T08:44:42.312Z,-0.31
2023-02-09T08:47:10.124Z,-0.28
2023-02-09T08:49:38.045Z,-0.22
2023-02-09T08:52:08.258Z,-0.19
2023-02-09T08:54:36.222Z,-0.13
2023-02-09T08:57:05.504Z,-0.11
2023-02-09T08:59:33.946Z,-0.07
2023-02-09T09:02:01.765Z,-0.04
2023-02-09T09:04:29.559Z,0.04
2023-02-09T09:06:57.361Z,0.09
2023-02-09T09:09:25.167Z,0.16
2023-02-09T09:11:53.005Z,0.22
2023-02-09T09:14:22.168Z,0.29
2023-02-09T09:16:50.018Z,0.37
2023-02-09T09:19:17.827Z,0.42
2023-02-09T09:21:45.584Z,0.47
2023-02-09T09:24:13.594Z,0.54
2023-02-09T09:26:41.364Z,0.61
2023-02-09T09:29:10.769Z,0.68
2023-02-09T09:31:40.115Z,0.76
2023-02-09T09:34:07.983Z,0.85
2023-02-09T09:36:35.757Z,0.90
2023-02-09T09:39:03.534Z,0.99
2023-02-09T09:41:34.628Z,1.07
2023-02-09T09:44:04.482Z,1.16
2023-02-09T09:46:37.688Z,1.23
2023-02-09T09:49:07.339Z,1.31
2023-02-09T09:51:40.599Z,1.41
2023-02-09T09:54:15.261Z,1.50
2023-02-09T09:56:43.097Z,1.54
2023-02-09T09:59:17.844Z,1.62
2023-02-09T10:01:46.455Z,1.68
2023-02-09T10:04:16.876Z,1.72
2023-02-09T10:06:47.726Z,1.79
2023-02-09T10:09:29.818Z,1.84
2023-02-09T10:12:13.033Z,1.90
2023-02-09T10:14:40.838Z,1.97
2023-02-09T10:17:09.155Z,2.03
2023-02-09T10:19:38.283Z,2.09
2023-02-09T10:22:06.432Z,2.14
2023-02-09T10:24:36.220Z,2.14
2023-02-09T10:27:14.989Z,2.15
2023-02-09T10:29:43.727Z,2.20
2023-02-09T10:32:16.661Z,2.25
2023-02-09T10:34:48.977Z,2.29
2023-02-09T10:37:23.854Z,2.34
2023-02-09T10:40:07.175Z,2.35
2023-02-09T10:42:37.225Z,2.39
2023-02-09T10:45:10.230Z,2.44
2023-02-09T10:47:38.068Z,2.48
2023-02-09T10:50:28.156Z,2.50
2023-02-09T10:52:59.299Z,2.55
2023-02-09T10:55:34.395Z,2.56
2023-02-09T10:58:08.100Z,2.60
2023-02-09T11:00:42.639Z,2.63
2023-02-09T11:03:18.318Z,2.63
2023-02-09T11:05:48.762Z,2.65
2023-02-09T11:08:22.977Z,2.71
2023-02-09T11:11:05.660Z,2.77
2023-02-09T11:13:34.992Z,2.83
2023-02-09T11:16:44.636Z,2.96
2023-02-09T11:19:23.487Z,3.10
2023-02-09T11:22:02.392Z,3.18
2023-02-09T11:24:46.586Z,3.26
2023-02-09T11:27:21.433Z,3.32
2023-02-09T11:30:00.574Z,3.40
2023-02-09T11:32:35.427Z,3.46
2023-02-09T11:35:11.105Z,3.50
2023-02-09T11:37:50.841Z,3.53
2023-02-09T11:40:30.359Z,3.60
2023-02-09T11:43:12.687Z,3.60
2023-02-09T11:45:44.602Z,3.64
2023-02-09T11:48:17.723Z,3.64
2023-02-09T11:50:57.752Z,3.65
2023-02-09T11:53:35.956Z,3.65
2023-02-09T11:56:06.073Z,3.71
2023-02-09T11:58:41.496Z,3.75
2023-02-09T12:01:20.123Z,3.79
2023-02-09T12:04:00.287Z,3.82
2023-02-09T12:06:33.140Z,3.87
2023-02-09T12:09:11.670Z,3.93
2023-02-09T12:11:49.693Z,3.95
2023-02-09T12:14:49.106Z,3.91
2023-02-09T12:17:22.102Z,3.93
2023-02-09T12:19:58.270Z,3.94
2023-02-09T12:22:49.708Z,3.97
2023-02-09T12:25:35.938Z,4.01
2023-02-09T12:28:17.820Z,4.11
2023-02-09T12:31:07.640Z,4.24
2023-02-09T12:33:38.186Z,4.31
2023-02-09T12:36:26.161Z,4.37
2023-02-09T12:39:06.089Z,4.45
2023-02-09T12:42:07.288Z,4.49
2023-02-09T12:44:55.717Z,4.50
2023-02-09T12:47:58.890Z,4.51
2023-02-09T12:50:33.942Z,4.56
2023-02-09T12:53:34.838Z,4.57
2023-02-09T12:56:23.488Z,4.57
2023-02-09T12:58:56.924Z,4.59
2023-02-09T13:02:05.042Z,4.61
2023-02-09T13:04:36.718Z,4.65
2023-02-09T13:07:11.375Z,4.67
2023-02-09T13:09:41.807Z,4.70
2023-02-09T13:12:14.833Z,4.71
2023-02-09T13:14:44.864Z,4.75
2023-02-09T13:17:32.258Z,4.77
2023-02-09T13:20:08.353Z,4.77
2023-02-09T13:22:57.996Z,4.79
2023-02-09T13:25:32.381Z,4.78
2023-02-09T13:28:10.335Z,4.79
2023-02-09T13:30:38.244Z,4.80
2023-02-09T13:33:21.866Z,4.79
2023-02-09T13:36:08.954Z,4.81
2023-02-09T13:38:37.557Z,4.77
2023-02-09T13:41:07.421Z,4.77
2023-02-09T13:43:38.308Z,4.77
2023-02-09T13:46:06.531Z,4.74
2023-02-09T13:48:38.952Z,4.74
2023-02-09T13:51:16.729Z,4.72
2023-02-09T13:53:57.049Z,4.74
2023-02-09T13:56:24.976Z,4.75
2023-02-09T13:58:53.339Z,4.74
2023-02-09T14:01:29.764Z,4.78
2023-02-09T14:04:05.546Z,4.79
2023-02-09T14:06:36.716Z,4.81
2023-02-09T14:09:06.463Z,4.80
2023-02-09T14:11:42.603Z,4.79
2023-02-09T14:14:15.887Z,4.78
2023-02-09T14:16:53.132Z,4.77
2023-02-09T14:19:28.945Z,4.76
2023-02-09T14:21:56.767Z,4.76
2023-02-09T14:24:25.969Z,4.74
2023-02-09T14:26:56.690Z,4.74
2023-02-09T14:29:27.786Z,4.74
2023-02-09T14:31:57.468Z,4.73
2023-02-09T14:34:33.209Z,4.73
2023-02-09T14:37:03.895Z,4.75
2023-02-09T14:39:32.464Z,4.76
2023-02-09T14:42:18.000Z,4.74
2023-02-09T14:44:47.281Z,4.74
2023-02-09T14:47:29.658Z,4.75
2023-02-09T14:49:59.609Z,4.77
2023-02-09T14:52:28.968Z,4.78
2023-02-09T14:55:00.007Z,4.79
2023-02-09T14:57:30.490Z,4.78
2023-02-09T14:59:58.305Z,4.77
2023-02-09T15:02:28.457Z,4.79
2023-02-09T15:04:56.540Z,4.79
2023-02-09T15:07:33.070Z,4.79
2023-02-09T15:10:00.827Z,4.82
2023-02-09T15:12:30.246Z,4.83
2023-02-09T15:15:00.297Z,4.83
2023-02-09T15:17:30.012Z,4.84
2023-02-09T15:19:59.531Z,4.84
2023-02-09T15:22:28.770Z,4.85
2023-02-09T15:24:57.580Z,4.85
2023-02-09T15:27:30.148Z,4.86
2023-02-09T15:30:04.083Z,4.87
2023-02-09T15:32:34.621Z,4.88
2023-02-09T15:35:02.428Z,4.87
2023-02-09T15:37:36.256Z,4.86
2023-02-09T15:40:14.976Z,4.86
2023-02-09T15:43:00.601Z,4.89
2023-02-09T15:45:47.995Z,4.87
2023-02-09T15:48:18.821Z,4.86
2023-02-09T15:50:50.672Z,4.84
2023-02-09T15:53:21.315Z,4.83
2023-02-09T15:55:49.490Z,4.82
2023-02-09T15:58:19.899Z,4.81
2023-02-09T16:00:47.864Z,4.81
2023-02-09T16:03:17.906Z,4.82
2023-02-09T16:05:46.757Z,4.82
2023-02-09T16:08:21.305Z,4.84
2023-02-09T16:10:49.587Z,4.83
2023-02-09T16:13:18.674Z,4.81
2023-02-09T16:15:46.720Z,4.81
2023-02-09T16:18:14.978Z,4.81
2023-02-09T16:20:47.181Z,4.82
2023-02-09T16:23:21.010Z,4.82
2023-02-09T16:25:52.521Z,4.80
2023-02-09T16:28:21.293Z,4.79
2023-02-09T16:30:52.220Z,4.77
2023-02-09T16:33:20.592Z,4.76
2023-02-09T16:35:54.328Z,4.73
2023-02-09T16:38:23.816Z,4.71
2023-02-09T16:40:53.427Z,4.66
2023-02-09T16:43:23.694Z,4.64
2023-02-09T16:46:02.807Z,4.59
2023-02-09T16:48:34.565Z,4.56
2023-02-09T16:51:02.663Z,4.55
2023-02-09T16:53:33.823Z,4.52
2023-02-09T16:56:04.889Z,4.48
2023-02-09T16:58:33.004Z,4.44
2023-02-09T17:01:00.901Z,4.43
2023-02-09T17:03:34.499Z,4.41
2023-02-09T17:06:03.154Z,4.39
2023-02-09T17:08:32.985Z,4.38
2023-02-09T17:11:04.413Z,4.36
2023-02-09T17:13:32.433Z,4.36
2023-02-09T17:16:02.942Z,4.34
2023-02-09T17:18:33.676Z,4.31
2023-02-09T17:21:03.687Z,4.30
2023-02-09T17:23:32.013Z,4.27
2023-02-09T17:26:01.847Z,4.26
2023-02-09T17:28:29.826Z,4.26
2023-02-09T17:31:00.190Z,4.24
2023-02-09T17:33:29.892Z,4.23
2023-02-09T17:38:47.690Z,4.19
2023-02-09T17:41:19.452Z,4.19
2023-02-09T17:43:47.889Z,4.20
2023-02-09T17:46:20.434Z,4.19
2023-02-09T17:48:49.105Z,4.17
2023-02-09T17:51:21.715Z,4.15
2023-02-09T17:53:50.045Z,4.12
2023-02-09T17:56:19.456Z,4.12
2023-02-09T17:58:48.032Z,4.10
2023-02-09T18:01:26.422Z,4.09
2023-02-09T18:03:55.038Z,4.08
2023-02-09T18:06:33.711Z,4.05
2023-02-09T18:09:02.498Z,4.02
2023-02-09T18:11:43.690Z,3.99
2023-02-09T18:14:13.403Z,3.97
2023-02-09T18:16:42.765Z,3.95
2023-02-09T18:19:11.593Z,3.91
2023-02-09T18:21:40.005Z,3.89
2023-02-09T18:24:08.464Z,3.84
2023-02-09T18:26:36.175Z,3.83
2023-02-09T18:29:05.314Z,3.80
2023-02-09T18:31:33.162Z,3.75
2023-02-09T18:34:00.942Z,3.73
2023-02-09T18:36:28.776Z,3.69
2023-02-09T18:38:56.599Z,3.66
2023-02-09T18:41:24.724Z,3.64
2023-02-09T18:43:54.278Z,3.62
2023-02-09T18:46:24.515Z,3.59
2023-02-09T18:48:52.397Z,3.58
2023-02-09T18:51:20.198Z,3.56
2023-02-09T18:53:48.605Z,3.54
2023-02-09T18:56:19.544Z,3.50
2023-02-09T18:58:48.539Z,3.48
2023-02-09T19:01:16.402Z,3.46
2023-02-09T19:03:46.797Z,3.43
2023-02-09T19:06:14.544Z,3.40
2023-02-09T19:08:42.322Z,3.34
2023-02-09T19:11:16.032Z,3.32
2023-02-09T19:14:03.885Z,3.28
2023-02-09T19:16:31.770Z,3.25
2023-02-09T19:19:01.285Z,3.23
2023-02-09T19:21:29.564Z,3.19
2023-02-09T19:23:57.289Z,3.15
2023-02-09T19:26:25.196Z,3.12
2023-02-09T19:28:53.057Z,3.08
2023-02-09T19:31:20.913Z,3.04
2023-02-09T19:33:48.745Z,3.01
2023-02-09T19:36:17.859Z,2.97
2023-02-09T19:38:45.646Z,2.96
2023-02-09T19:41:13.675Z,2.95
2023-02-09T19:43:42.142Z,2.94
2023-02-09T19:46:11.138Z,2.91
2023-02-09T19:48:40.251Z,2.88
2023-02-09T19:51:09.267Z,2.84
2023-02-09T19:53:38.438Z,2.84
2023-02-09T19:56:06.669Z,2.82
2023-02-09T19:58:34.467Z,2.79
2023-02-09T20:01:02.357Z,2.78
2023-02-09T20:03:31.072Z,2.75
2023-02-09T20:05:58.844Z,2.72
2023-02-09T20:08:26.596Z,2.69
2023-02-09T20:10:55.709Z,2.65
2023-02-09T20:13:23.531Z,2.64
2023-02-09T20:15:51.312Z,2.62
2023-02-09T20:18:19.756Z,2.60
2023-02-09T20:20:47.851Z,2.58
2023-02-09T20:23:16.280Z,2.55
2023-02-09T20:25:44.812Z,2.52
2023-02-09T20:28:13.993Z,2.51
2023-02-09T20:30:42.935Z,2.49
2023-02-09T20:33:13.292Z,2.49
2023-02-09T20:35:41.605Z,2.47
2023-02-09T20:38:10.038Z,2.45
2023-02-09T20:40:37.876Z,2.43
2023-02-09T20:43:23.255Z,2.40
2023-02-09T20:46:12.461Z,2.38
2023-02-09T20:48:40.342Z,2.34
2023-02-09T20:51:08.258Z,2.34
2023-02-09T20:53:35.990Z,2.33
2023-02-09T20:56:03.787Z,2.32
2023-02-09T20:58:31.536Z,2.30
2023-02-09T21:01:00.678Z,2.28
2023-02-09T21:03:28.516Z,2.26
2023-02-09T21:05:56.266Z,2.23
2023-02-09T21:08:24.031Z,2.21
2023-02-09T21:10:56.348Z,2.20
2023-02-09T21:13:24.198Z,2.17
2023-02-09T21:15:52.038Z,2.16
2023-02-09T21:18:22.023Z,2.15
2023-02-09T21:20:50.116Z,2.15
2023-02-09T21:23:18.913Z,2.15
2023-02-09T21:25:46.841Z,2.13
2023-02-09T21:28:15.079Z,2.12
2023-02-09T21:30:43.704Z,2.09
2023-02-09T21:33:11.595Z,2.06
2023-02-09T21:35:41.951Z,2.05
2023-02-09T21:38:09.706Z,2.03
2023-02-09T21:40:37.573Z,2.02
2023-02-09T21:43:05.388Z,1.99
2023-02-09T21:45:33.330Z,1.96
2023-02-09T21:48:01.206Z,1.96
2023-02-09T21:50:28.933Z,1.96
2023-02-09T21:52:59.435Z,1.93
2023-02-09T21:55:27.230Z,1.92
2023-02-09T21:57:55.115Z,1.92
2023-02-09T22:00:22.881Z,1.90
2023-02-09T22:02:53.337Z,1.89
2023-02-09T22:05:21.544Z,1.89
2023-02-09T22:07:49.934Z,1.89
2023-02-09T22:10:19.248Z,1.87
2023-02-09T22:12:47.045Z,1.85
2023-02-09T22:15:15.168Z,1.85
2023-02-09T22:17:42.919Z,1.82
2023-02-09T22:20:11.865Z,1.81
2023-02-09T22:22:40.507Z,1.80
2023-02-09T22:25:09.347Z,1.80
2023-02-09T22:27:38.502Z,1.79
2023-02-09T22:30:06.707Z,1.75
2023-02-09T22:32:34.505Z,1.74
2023-02-09T22:35:02.247Z,1.74
2023-02-09T22:37:29.978Z,1.72
2023-02-09T22:39:57.789Z,1.71
2023-02-09T22:42:25.742Z,1.69
2023-02-09T22:44:54.862Z,1.68
2023-02-09T22:47:22.612Z,1.67
2023-02-09T22:49:50.379Z,1.65
2023-02-09T22:52:18.118Z,1.65
2023-02-09T22:54:45.845Z,1.60
2023-02-09T22:57:13.645Z,1.57
2023-02-09T22:59:41.426Z,1.57
2023-02-09T23:02:12.469Z,1.54
2023-02-09T23:04:40.444Z,1.54
2023-02-09T23:07:08.232Z,1.54
2023-02-09T23:09:36.177Z,1.54
2023-02-09T23:12:04.231Z,1.54
2023-02-09T23:14:32.029Z,1.53
2023-02-09T23:17:00.513Z,1.51
2023-02-09T23:19:29.681Z,1.49
2023-02-09T23:21:57.520Z,1.49
2023-02-09T23:24:25.357Z,1.49
2023-02-09T23:26:54.395Z,1.49
2023-02-09T23:29:23.061Z,1.47
2023-02-09T23:31:50.822Z,1.47
2023-02-09T23:34:20.243Z,1.46
2023-02-09T23:36:49.688Z,1.46
2023-02-09T23:39:19.212Z,1.43
2023-02-09T23:41:47.615Z,1.44
2023-02-09T23:44:15.434Z,1.41
2023-02-09T23:46:43.318Z,1.37
2023-02-09T23:49:11.732Z,1.36
2023-02-09T23:51:39.491Z,1.34
2023-02-09T23:54:09.021Z,1.33
2023-02-09T23:56:37.878Z,1.31
2023-02-09T23:59:07.364Z,1.30
